createdAt,value
2022-12-16T02:18:55.301Z,99819.00
2022-12-16T02:21:31.507Z,99814.66
2022-12-16T02:24:26.258Z,99811.19
2022-12-16T02:27:17.981Z,99812.91
2022-12-16T02:30:30.420Z,99812.03
2022-12-16T02:33:12.195Z,99807.69
2022-12-16T02:36:07.457Z,99813.75
2022-12-16T02:38:56.595Z,99807.69
2022-12-16T02:41:51.108Z,99805.94
2022-12-16T02:44:20.117Z,99802.47
2022-12-16T02:46:55.781Z,99799.84
2022-12-16T02:49:22.602Z,99805.91
2022-12-16T02:51:50.074Z,99826.75
2022-12-16T02:54:18.027Z,99819.78
2022-12-16T02:57:00.948Z,99816.25
2022-12-16T02:59:34.483Z,99818.00
2022-12-16T03:02:10.754Z,99814.53
2022-12-16T03:04:51.650Z,99819.75
2022-12-16T03:07:22.942Z,99817.13
2022-12-16T03:09:51.830Z,99810.16
2022-12-16T03:12:22.088Z,99803.19
2022-12-16T03:14:53.524Z,99813.59
2022-12-16T03:17:24.225Z,99807.53
2022-12-16T03:20:02.021Z,99797.94
2022-12-16T03:22:34.368Z,99797.03
2022-12-16T03:25:01.727Z,99791.81
2022-12-16T03:27:46.401Z,99794.41
2022-12-16T03:30:17.951Z,99798.78
2022-12-16T03:32:47.995Z,99791.81
2022-12-16T03:35:22.089Z,99790.09
2022-12-16T03:37:52.245Z,99787.50
2022-12-16T03:40:20.444Z,99790.09
2022-12-16T03:42:48.786Z,99797.03
2022-12-16T03:45:21.075Z,99800.53
2022-12-16T03:47:52.373Z,99804.84
2022-12-16T03:50:25.556Z,99807.44
2022-12-16T03:52:53.838Z,99805.72
2022-12-16T03:55:20.962Z,99802.22
2022-12-16T03:57:48.492Z,99810.94
2022-12-16T04:00:16.059Z,99806.56
2022-12-16T04:02:43.874Z,99812.63
2022-12-16T04:05:11.559Z,99825.66
2022-12-16T04:07:39.037Z,99822.19
2022-12-16T04:10:07.594Z,99812.66
2022-12-16T04:12:53.449Z,99823.06
2022-12-16T04:15:39.486Z,99825.69
2022-12-16T04:18:32.444Z,99828.28
2022-12-16T04:21:18.552Z,99831.72
2022-12-16T04:24:10.864Z,99830.00
2022-12-16T04:26:56.628Z,99836.09
2022-12-16T04:29:24.028Z,99836.94
2022-12-16T04:31:52.455Z,99847.34
2022-12-16T04:34:27.192Z,99843.88
2022-12-16T04:37:17.732Z,99839.50
2022-12-16T04:40:03.726Z,99840.38
2022-12-16T04:42:49.961Z,99826.47
2022-12-16T04:45:36.278Z,99827.34
2022-12-16T04:48:22.032Z,99816.03
2022-12-16T04:51:07.686Z,99827.38
2022-12-16T04:53:53.179Z,99827.38
2022-12-16T04:56:49.737Z,99832.59
2022-12-16T04:59:35.117Z,99827.38
2022-12-16T05:02:20.770Z,99806.53
2022-12-16T05:05:06.296Z,99806.53
2022-12-16T05:07:51.701Z,99816.13
2022-12-16T05:10:37.099Z,99822.25
2022-12-16T05:13:22.556Z,99809.22
2022-12-16T05:16:08.241Z,99810.13
2022-12-16T05:18:53.804Z,99824.03
2022-12-16T05:21:39.287Z,99830.16
2022-12-16T05:24:25.067Z,99832.78
2022-12-16T05:27:10.854Z,99838.84
2022-12-16T05:29:56.269Z,99832.78
2022-12-16T05:32:41.863Z,99840.59
2022-12-16T05:35:27.487Z,99835.38
2022-12-16T05:38:12.610Z,99848.38
2022-12-16T05:41:11.847Z,99868.34
2022-12-16T05:43:57.507Z,99871.81
2022-12-16T05:46:43.239Z,99879.63
2022-12-16T05:49:29.256Z,99886.59
2022-12-16T05:52:14.917Z,99887.44
2022-12-16T05:55:00.336Z,99883.06
2022-12-16T05:57:45.979Z,99895.25
2022-12-16T06:00:31.994Z,99899.59
2022-12-16T06:03:17.366Z,99905.66
2022-12-16T06:06:03.265Z,99898.69
2022-12-16T10:15:17.369Z,99670.72
2022-12-16T10:18:04.049Z,99670.69
2022-12-16T10:22:52.119Z,99674.03
2022-12-16T10:26:17.900Z,99667.88
2022-12-16T10:29:06.873Z,99672.13
2022-12-16T10:31:56.281Z,99666.81
2022-12-16T10:34:52.029Z,99664.13
2022-12-16T10:37:58.832Z,99656.19
2022-12-16T10:40:51.862Z,99654.41
2022-12-16T10:43:54.135Z,99649.06
2022-12-16T10:46:47.728Z,99644.59
2022-12-16T10:49:36.000Z,99646.28
2022-12-16T10:52:24.225Z,99640.94
2022-12-16T10:55:34.354Z,99634.88
2022-12-16T10:58:24.816Z,99634.81
2022-12-16T11:01:12.204Z,99632.06
2022-12-16T11:03:59.958Z,99626.91
2022-12-16T11:06:58.386Z,99619.84
2022-12-16T11:09:49.535Z,99608.53
2022-12-16T11:12:41.553Z,99605.06
2022-12-16T11:15:42.072Z,99600.63
2022-12-16T11:18:32.495Z,99595.47
2022-12-16T11:21:31.724Z,99585.91
2022-12-16T11:24:37.915Z,99581.50
2022-12-16T11:27:32.181Z,99584.06
2022-12-16T11:30:24.359Z,99565.84
2022-12-16T11:33:17.932Z,99563.25
2022-12-16T11:36:09.684Z,99561.41
2022-12-16T11:39:07.532Z,99572.00
2022-12-16T11:42:04.360Z,99571.13
2022-12-16T11:45:15.799Z,99557.22
2022-12-16T11:48:06.022Z,99564.25
2022-12-16T11:50:58.086Z,99552.09
2022-12-16T11:53:44.514Z,99551.22
2022-12-16T11:56:42.234Z,99547.69
2022-12-16T11:59:55.535Z,99545.91
2022-12-16T12:03:09.193Z,99539.03
2022-12-16T12:06:11.668Z,99545.13
2022-12-16T12:09:07.415Z,99544.28
2022-12-16T12:12:11.750Z,99543.47
2022-12-16T12:15:16.328Z,99527.75
2022-12-16T12:18:24.259Z,99528.66
2022-12-16T12:21:19.788Z,99508.75
2022-12-16T12:24:27.833Z,99506.13
2022-12-16T12:27:42.030Z,99499.25
2022-12-16T12:30:40.308Z,99498.38
2022-12-16T12:33:55.745Z,99482.72
2022-12-16T12:36:51.520Z,99487.94
2022-12-16T12:39:43.643Z,99473.19
2022-12-16T12:42:49.564Z,99479.16
2022-12-16T12:45:45.992Z,99471.34
2022-12-16T12:48:57.609Z,99459.03
2022-12-16T12:52:03.348Z,99461.69
2022-12-16T12:55:07.722Z,99459.19
2022-12-16T12:57:58.960Z,99463.44
2022-12-16T13:00:47.935Z,99464.44
2022-12-16T13:03:46.786Z,99460.88
2022-12-16T13:06:35.537Z,99464.31
2022-12-16T13:09:22.671Z,99457.31
2022-12-16T13:12:28.755Z,99461.59
2022-12-16T13:15:30.583Z,99455.72
2022-12-16T13:18:23.268Z,99464.38
2022-12-16T13:21:14.020Z,99457.34
2022-12-16T13:24:04.285Z,99461.78
2022-12-16T13:26:53.497Z,99452.25
2022-12-16T13:29:51.558Z,99441.78
2022-12-16T13:32:44.267Z,99436.63
2022-12-16T13:35:30.916Z,99427.88
2022-12-16T13:38:38.018Z,99422.69
2022-12-16T13:41:43.896Z,99411.38
2022-12-16T13:44:31.250Z,99402.69
2022-12-16T13:47:18.164Z,99395.72
2022-12-16T13:50:11.055Z,99388.78
2022-12-16T13:53:07.029Z,99388.00
2022-12-16T13:55:56.257Z,99383.63
2022-12-16T13:59:05.153Z,99372.41
2022-12-16T14:02:06.668Z,99378.50
2022-12-16T14:35:01.330Z,99355.00
2022-12-16T14:37:54.977Z,99358.41
2022-12-16T14:43:45.421Z,99363.41
2022-12-16T14:46:50.908Z,99356.28
2022-12-16T14:49:44.976Z,99384.75
2022-12-16T14:52:49.183Z,99398.47
2022-12-16T14:55:48.732Z,99396.59
2022-12-16T14:58:42.567Z,99384.31
2022-12-16T15:01:37.800Z,99377.28
2022-12-16T15:04:34.150Z,99377.25
2022-12-16T15:07:29.390Z,99362.50
2022-12-16T15:10:19.037Z,99345.13
2022-12-16T15:13:07.733Z,99346.88
2022-12-16T15:16:05.885Z,99335.50
2022-12-16T15:18:56.955Z,99341.66
2022-12-16T15:21:42.794Z,99343.31
2022-12-16T15:24:32.796Z,99331.22
2022-12-16T15:27:39.865Z,99343.44
2022-12-16T15:30:50.423Z,99334.63
2022-12-16T15:33:39.110Z,99325.13
2022-12-16T15:36:31.499Z,99326.88
2022-12-16T15:39:20.240Z,99318.19
2022-12-16T15:42:07.267Z,99332.97
2022-12-16T15:44:57.897Z,99322.53
2022-12-16T15:47:52.200Z,99326.91
2022-12-16T15:50:41.435Z,99319.88
2022-12-16T15:53:50.373Z,99325.13
2022-12-16T15:56:37.258Z,99306.97
2022-12-16T15:59:42.474Z,99294.72
2022-12-16T16:02:36.631Z,99294.75
2022-12-16T16:05:33.104Z,99288.63
2022-12-16T16:08:18.987Z,99285.19
2022-12-16T16:11:05.145Z,99283.44
2022-12-16T16:13:50.842Z,99281.69
2022-12-16T16:16:36.728Z,99273.88
2022-12-16T16:19:23.204Z,99279.09
2022-12-16T16:22:08.828Z,99276.50
2022-12-16T16:24:54.412Z,99274.72
2022-12-16T17:55:51.733Z,99247.63
2022-12-16T17:58:36.221Z,99241.44
2022-12-16T18:01:25.084Z,99235.19
2022-12-16T18:04:59.487Z,99244.47
2022-12-16T18:07:45.247Z,99234.75
2022-12-16T18:10:30.516Z,99236.25
2022-12-16T18:13:17.083Z,99223.06
2022-12-16T18:16:10.955Z,99220.28
2022-12-16T18:18:56.707Z,99206.16
2022-12-16T18:21:43.304Z,99203.41
2022-12-16T18:24:29.095Z,99206.78
2022-12-16T18:27:14.856Z,99204.97
2022-12-16T18:30:00.189Z,99216.13
2022-12-16T18:32:45.869Z,99208.25
2022-12-16T18:35:31.336Z,99209.91
2022-12-16T18:38:17.267Z,99204.81
2022-12-16T18:41:19.384Z,99217.88
2022-12-16T18:44:04.895Z,99236.13
2022-12-16T18:46:50.287Z,99234.41
2022-12-16T18:49:36.052Z,99222.13
2022-12-16T18:52:22.056Z,99235.25
2022-12-16T18:55:07.969Z,99235.19
2022-12-16T18:57:54.259Z,99226.47
2022-12-16T19:00:42.909Z,99233.44
2022-12-16T19:03:28.843Z,99230.00
2022-12-16T19:06:25.924Z,99225.66
2022-12-16T19:09:14.075Z,99229.91
2022-12-16T19:11:59.768Z,99232.38
2022-12-16T19:14:45.761Z,99238.63
2022-12-16T19:17:31.721Z,99236.59
2022-12-16T19:20:17.827Z,99230.59
2022-12-16T19:23:03.299Z,99220.09
2022-12-16T19:25:49.493Z,99205.09
2022-12-16T19:28:35.575Z,99201.66
2022-12-16T19:31:28.178Z,99206.69
2022-12-16T19:34:17.740Z,99201.34
2022-12-16T19:37:04.250Z,99207.28
2022-12-16T19:39:56.774Z,99200.31
2022-12-16T19:42:43.119Z,99201.88
2022-12-16T19:45:33.012Z,99199.31
2022-12-16T19:48:40.584Z,99195.66
2022-12-16T19:51:26.880Z,99203.53
2022-12-16T19:54:14.646Z,99208.75
2022-12-16T19:57:00.482Z,99188.63
2022-12-16T19:59:51.657Z,99188.59
2022-12-16T20:02:38.208Z,99185.94
2022-12-16T20:05:28.206Z,99185.81
2022-12-16T20:08:15.718Z,99191.19
2022-12-16T20:11:07.061Z,99189.34
2022-12-16T20:13:56.057Z,99170.16
2022-12-16T20:16:44.537Z,99183.19
2022-12-16T20:19:35.127Z,99183.16
2022-12-16T20:22:24.485Z,99174.47
2022-12-16T20:25:15.294Z,99176.09
2022-12-16T20:28:03.584Z,99184.78
2022-12-16T20:30:51.564Z,99219.53
2022-12-16T20:33:39.694Z,99201.25
2022-12-16T20:36:26.207Z,99210.63
2022-12-16T20:39:14.411Z,99232.34
2022-12-16T20:42:00.450Z,99213.19
2022-12-16T20:44:46.947Z,99225.16
2022-12-16T20:47:32.508Z,99229.75
2022-12-16T20:50:19.192Z,99231.28
2022-12-16T20:53:07.331Z,99240.78
2022-12-16T20:55:57.060Z,99232.06
2022-12-16T20:58:44.166Z,99236.41
2022-12-16T21:01:31.881Z,99248.63
2022-12-16T21:04:18.820Z,99261.69
2022-12-16T21:07:05.016Z,99248.50
2022-12-16T21:09:51.813Z,99245.00
2022-12-16T21:12:37.711Z,99249.31
2022-12-16T21:15:24.637Z,99240.53
2022-12-16T21:18:10.701Z,99232.66
2022-12-16T21:20:57.251Z,99246.56
2022-12-16T21:23:43.957Z,99243.09
2022-12-16T21:26:30.075Z,99235.22
2022-12-16T21:29:18.703Z,99232.75
2022-12-16T21:32:05.114Z,99248.28
2022-12-16T21:34:51.851Z,99264.84
2022-12-16T21:37:38.574Z,99278.81
2022-12-16T21:40:26.038Z,99266.63
2022-12-16T21:43:12.729Z,99244.78
2022-12-16T21:45:59.503Z,99243.09
2022-12-16T21:48:45.639Z,99234.38
2022-12-16T21:51:34.408Z,99228.09
2022-12-16T21:54:23.194Z,99221.13
2022-12-16T21:57:14.508Z,99220.22
2022-12-16T22:00:00.517Z,99200.13
2022-12-16T22:02:47.497Z,99210.59
2022-12-16T22:05:34.340Z,99212.44
2022-12-16T22:08:30.615Z,99254.94
2022-12-16T22:11:17.338Z,99253.13
2022-12-16T22:14:03.660Z,99255.81
2022-12-16T22:16:49.704Z,99238.34
2022-12-16T22:19:35.610Z,99230.44
2022-12-16T22:22:26.397Z,99223.53
2022-12-16T22:25:14.520Z,99215.69
2022-12-16T22:28:00.949Z,99198.25
2022-12-16T22:30:47.479Z,99185.22
2022-12-16T22:33:34.733Z,99186.91
2022-12-16T22:36:26.182Z,99205.28
2022-12-16T22:39:12.362Z,99220.84
2022-12-16T22:41:58.202Z,99223.38
2022-12-16T22:44:44.697Z,99228.56
2022-12-16T22:47:30.666Z,99229.38
2022-12-16T22:50:16.585Z,99231.25
2022-12-16T22:53:02.868Z,99236.41
2022-12-16T22:55:49.925Z,99237.25
2022-12-16T22:58:35.993Z,99238.13
2022-12-16T23:01:26.629Z,99240.94
2022-12-16T23:04:13.438Z,99246.94
2022-12-16T23:06:59.364Z,99258.25
2022-12-16T23:09:44.979Z,99252.03
2022-12-16T23:12:31.582Z,99250.28
2022-12-16T23:15:18.144Z,99239.78
2022-12-16T23:18:05.291Z,99238.81
2022-12-16T23:20:51.611Z,99246.63
2022-12-16T23:23:38.283Z,99243.13
2022-12-16T23:26:25.163Z,99237.91
2022-12-16T23:29:12.559Z,99243.13
2022-12-16T23:31:58.993Z,99244.91
2022-12-16T23:34:47.201Z,99257.09
2022-12-16T23:37:34.934Z,99242.31
2022-12-16T23:40:22.022Z,99245.78
2022-12-16T23:43:09.748Z,99233.59
2022-12-16T23:45:56.318Z,99230.97
2022-12-16T23:48:42.613Z,99225.81
2022-12-16T23:51:28.767Z,99232.72
2022-12-16T23:54:14.969Z,99234.44
2022-12-16T23:57:01.017Z,99234.41
2022-12-16T23:59:46.911Z,99242.19
